Terminal Aerodrome Forecast
Issued by NWS Sterling, VA

Current Version | Previous Version | Graphics & Text | Print | Product List | Glossary On
Versions: 1 2 3 4 5 6 7 8 9 10 11 12 13 14 15 16 17 18 19 20 21 22 23 24 25 26 27 28
000
FTUS41 KLWX 280900 AAA
TAFIAD
TAF AMD
KIAD 280900Z 2809/2912 30008KT P6SM FEW070
     FM281300 32012G20KT P6SM SCT100
     FM282200 30004KT P6SM SCT100
     FM290000 00000KT P6SM SCT090
     FM290100 00000KT P6SM BKN090=

USA.gov is the U.S. government's official web portal to all federal, state and local government web resources and services.